createdAt,value
2023-05-05T00:02:02.184Z,59.80
2023-05-05T00:04:28.592Z,59.99
2023-05-05T00:06:54.991Z,59.80
2023-05-05T00:09:21.370Z,60.07
2023-05-05T00:11:47.778Z,59.98
2023-05-05T00:14:14.075Z,60.24
2023-05-05T00:16:40.651Z,60.18
2023-05-05T00:19:06.997Z,60.17
2023-05-05T00:21:33.281Z,60.47
2023-05-05T00:24:07.146Z,60.33
2023-05-05T00:26:33.495Z,60.67
2023-05-05T00:29:00.171Z,60.86
2023-05-05T00:31:26.607Z,60.88
2023-05-05T00:34:01.943Z,60.76
2023-05-05T00:36:28.384Z,60.93
2023-05-05T00:38:54.775Z,61.06
2023-05-05T00:41:21.122Z,61.35
2023-05-05T00:43:47.634Z,61.56
2023-05-05T00:46:17.095Z,61.64
2023-05-05T00:48:43.495Z,61.95
2023-05-05T00:51:09.876Z,62.00
2023-05-05T00:53:36.280Z,62.21
2023-05-05T00:56:02.813Z,62.36
2023-05-05T00:58:29.801Z,62.40
2023-05-05T01:00:56.061Z,62.47
2023-05-05T01:03:25.640Z,62.80
2023-05-05T01:05:55.655Z,62.81
2023-05-05T01:08:57.725Z,62.80
2023-05-05T01:11:31.559Z,62.59
2023-05-05T01:14:18.539Z,62.76
2023-05-05T01:16:53.103Z,62.80
2023-05-05T01:19:19.458Z,62.69
2023-05-05T01:21:47.844Z,63.03
2023-05-05T01:24:33.256Z,63.00
2023-05-05T01:27:17.419Z,63.16
2023-05-05T01:29:43.769Z,63.32
2023-05-05T01:32:12.206Z,63.23
2023-05-05T01:34:43.575Z,63.20
2023-05-05T01:37:18.305Z,63.43
2023-05-05T01:39:49.331Z,63.75
2023-05-05T01:42:16.224Z,63.75
2023-05-05T01:44:43.349Z,63.68
2023-05-05T01:47:15.241Z,63.86
2023-05-05T01:49:45.379Z,63.84
2023-05-05T01:52:12.560Z,63.85
2023-05-05T01:54:39.576Z,63.87
2023-05-05T01:57:06.776Z,63.79
2023-05-05T01:59:33.589Z,63.98
2023-05-05T02:02:01.498Z,63.97
2023-05-05T02:04:28.936Z,64.14
2023-05-05T02:06:57.268Z,64.30
2023-05-05T02:09:24.858Z,64.45
2023-05-05T02:11:52.741Z,64.55
2023-05-05T02:14:20.649Z,64.54
2023-05-05T02:16:47.329Z,64.51
2023-05-05T02:19:14.220Z,64.49
2023-05-05T02:21:41.681Z,64.60
2023-05-05T02:24:08.258Z,64.41
2023-05-05T02:26:37.754Z,64.53
2023-05-05T02:29:14.346Z,64.46
2023-05-05T02:31:48.268Z,64.61
2023-05-05T02:34:19.724Z,64.52
2023-05-05T02:36:47.052Z,64.51
2023-05-05T02:39:18.419Z,64.55
2023-05-05T02:41:46.967Z,64.47
2023-05-05T02:44:22.783Z,64.41
2023-05-05T02:46:50.125Z,64.37
2023-05-05T02:49:16.859Z,64.32
2023-05-05T02:51:44.278Z,64.45
2023-05-05T02:54:17.910Z,64.64
2023-05-05T02:56:48.639Z,64.72
2023-05-05T02:59:18.780Z,64.94
2023-05-05T03:02:05.109Z,65.07
2023-05-05T03:04:41.088Z,65.02
2023-05-05T03:07:20.436Z,65.11
2023-05-05T03:09:55.275Z,65.29
2023-05-05T03:12:26.555Z,65.21
2023-05-05T03:15:00.511Z,65.21
2023-05-05T03:17:28.845Z,65.27
2023-05-05T03:19:56.549Z,65.43
2023-05-05T03:22:23.409Z,65.71
2023-05-05T03:24:50.676Z,65.55
2023-05-05T03:27:18.043Z,65.51
2023-05-05T03:29:44.382Z,65.64
2023-05-05T03:32:12.512Z,65.88
2023-05-05T03:34:39.704Z,66.03
2023-05-05T03:37:06.044Z,66.33
2023-05-05T03:39:32.887Z,66.44
2023-05-05T03:41:59.582Z,66.28
2023-05-05T03:44:28.893Z,66.27
2023-05-05T03:46:56.571Z,66.08
2023-05-05T03:49:23.053Z,66.01
2023-05-05T03:51:49.695Z,66.03
2023-05-05T03:54:16.040Z,66.15
2023-05-05T03:56:42.482Z,65.98
2023-05-05T03:59:08.835Z,66.05
2023-05-05T04:01:35.781Z,65.95
2023-05-05T04:04:02.163Z,65.83
2023-05-05T04:06:28.533Z,65.59
2023-05-05T04:08:54.963Z,65.70
2023-05-05T04:11:21.304Z,65.41
2023-05-05T04:13:47.933Z,65.01
2023-05-05T04:16:14.587Z,64.81
2023-05-05T04:18:41.125Z,64.53
2023-05-05T04:21:07.440Z,64.84
2023-05-05T04:23:33.915Z,64.85
2023-05-05T04:26:00.412Z,64.64
2023-05-05T04:28:27.130Z,64.55
2023-05-05T04:30:53.780Z,64.26
2023-05-05T04:33:20.488Z,64.39
2023-05-05T04:35:47.553Z,64.27
2023-05-05T04:38:14.551Z,64.49
2023-05-05T04:40:41.589Z,64.61
2023-05-05T04:43:08.794Z,64.35
2023-05-05T04:45:35.513Z,64.65
2023-05-05T04:48:02.236Z,64.31
2023-05-05T04:50:28.620Z,64.22
2023-05-05T04:52:55.167Z,64.28
2023-05-05T04:55:22.048Z,64.26
2023-05-05T04:57:48.454Z,63.99
2023-05-05T05:00:14.970Z,64.07
2023-05-05T05:02:41.462Z,64.11
2023-05-05T05:05:09.010Z,63.75
2023-05-05T05:07:35.568Z,63.84
2023-05-05T05:10:02.167Z,63.91
2023-05-05T05:12:28.541Z,64.06
2023-05-05T05:14:55.463Z,63.81
2023-05-05T05:17:21.778Z,63.79
2023-05-05T05:19:48.657Z,63.65
2023-05-05T05:22:15.884Z,63.14
2023-05-05T05:24:42.531Z,63.22
2023-05-05T05:27:10.101Z,63.57
2023-05-05T05:29:38.032Z,63.25
2023-05-05T05:32:05.185Z,63.25
2023-05-05T05:34:31.713Z,63.55
2023-05-05T05:36:59.291Z,63.45
2023-05-05T05:39:25.794Z,63.81
2023-05-05T05:41:52.231Z,63.99
2023-05-05T05:44:18.693Z,63.66
2023-05-05T05:46:45.215Z,63.68
2023-05-05T05:49:11.767Z,63.69
2023-05-05T05:51:38.112Z,63.85
2023-05-05T05:54:04.460Z,64.09
2023-05-05T05:56:31.287Z,63.96
2023-05-05T05:58:57.877Z,64.01
2023-05-05T06:01:24.297Z,63.85
2023-05-05T06:03:50.703Z,63.91
2023-05-05T06:06:17.978Z,64.14
2023-05-05T06:08:44.437Z,64.06
2023-05-05T06:11:11.426Z,64.06
2023-05-05T06:13:37.906Z,64.22
2023-05-05T06:16:05.419Z,64.63
2023-05-05T06:18:32.397Z,64.19
2023-05-05T06:20:58.870Z,64.16
2023-05-05T06:23:26.702Z,64.20
2023-05-05T06:25:56.920Z,64.20
2023-05-05T06:28:23.428Z,64.32
2023-05-05T06:30:49.830Z,63.60
2023-05-05T06:33:16.152Z,63.13
2023-05-05T06:35:45.694Z,63.13
2023-05-05T06:38:12.263Z,62.43
2023-05-05T06:40:38.687Z,61.87
2023-05-05T06:43:05.007Z,61.27
2023-05-05T06:45:34.871Z,61.41
2023-05-05T06:48:01.256Z,61.05
2023-05-05T06:50:27.834Z,60.62
2023-05-05T06:52:54.207Z,60.30
2023-05-05T06:55:20.813Z,59.83
2023-05-05T06:57:47.231Z,59.72
2023-05-05T07:00:13.824Z,59.02
2023-05-05T07:02:40.484Z,58.59
2023-05-05T07:05:07.022Z,57.78
2023-05-05T07:07:33.328Z,57.71
2023-05-05T07:09:59.628Z,57.24
2023-05-05T07:12:28.493Z,57.02
2023-05-05T07:14:54.903Z,56.51
2023-05-05T07:17:21.347Z,56.31
2023-05-05T07:19:47.804Z,55.50
2023-05-05T07:22:14.173Z,55.00
2023-05-05T07:24:40.831Z,54.64
2023-05-05T07:27:07.323Z,54.23
2023-05-05T07:29:33.650Z,53.85
2023-05-05T07:32:00.078Z,53.56
2023-05-05T07:34:26.421Z,52.94
2023-05-05T07:36:52.719Z,52.99
2023-05-05T07:39:19.026Z,53.09
2023-05-05T07:41:45.596Z,52.72
2023-05-05T07:44:12.184Z,51.05
2023-05-05T07:46:38.546Z,49.51
2023-05-05T07:49:05.197Z,49.42
2023-05-05T07:53:57.990Z,48.61
2023-05-05T07:56:24.474Z,48.71
2023-05-05T07:58:50.837Z,48.51
2023-05-05T08:01:17.377Z,48.44
2023-05-05T08:03:44.178Z,48.27
2023-05-05T08:06:10.683Z,47.38
2023-05-05T08:08:37.355Z,47.19
2023-05-05T08:11:03.839Z,46.84
2023-05-05T08:13:30.200Z,46.82
2023-05-05T08:15:59.147Z,46.06
2023-05-05T08:18:25.915Z,46.11
2023-05-05T08:20:52.187Z,46.36
2023-05-05T08:23:18.511Z,46.23
2023-05-05T08:25:45.149Z,45.95
2023-05-05T08:28:11.481Z,44.95
2023-05-05T08:30:38.160Z,45.25
2023-05-05T08:33:04.723Z,44.89
2023-05-05T08:35:31.238Z,43.80
2023-05-05T08:37:59.122Z,43.65
2023-05-05T08:40:29.015Z,43.72
2023-05-05T08:42:55.406Z,43.83
2023-05-05T08:45:21.784Z,43.70
2023-05-05T08:47:48.239Z,44.14
2023-05-05T08:50:16.600Z,43.95
2023-05-05T08:52:44.792Z,43.02
2023-05-05T08:55:20.658Z,42.40
2023-05-05T08:57:51.845Z,42.71
2023-05-05T09:00:19.048Z,42.30
2023-05-05T09:02:46.070Z,42.76
2023-05-05T09:05:12.832Z,42.65
2023-05-05T09:07:39.320Z,42.49
2023-05-05T09:10:07.589Z,42.00
2023-05-05T09:12:34.725Z,41.84
2023-05-05T09:15:01.149Z,41.81
2023-05-05T09:17:27.540Z,41.59
2023-05-05T09:19:59.907Z,40.62
2023-05-05T09:22:36.039Z,40.24
2023-05-05T09:25:03.312Z,40.33
2023-05-05T09:27:49.869Z,40.43
2023-05-05T09:30:17.498Z,40.25
2023-05-05T10:52:54.137Z,29.43
2023-05-05T10:55:39.075Z,28.91
2023-05-05T10:58:05.494Z,29.05
2023-05-05T11:00:38.371Z,27.87
2023-05-05T11:03:17.203Z,27.38
2023-05-05T11:06:02.667Z,27.30
2023-05-05T11:08:30.225Z,26.36
2023-05-05T11:10:56.682Z,26.16
2023-05-05T11:13:23.178Z,25.47
2023-05-05T11:15:53.411Z,24.02
2023-05-05T11:18:30.686Z,24.41
2023-05-05T11:20:57.082Z,23.98
2023-05-05T11:23:23.632Z,23.42
2023-05-05T11:25:50.230Z,23.50
2023-05-05T11:28:17.713Z,23.18
2023-05-05T11:31:10.261Z,22.63
2023-05-05T11:33:39.265Z,21.56
2023-05-05T11:36:09.792Z,22.42
2023-05-05T11:38:54.864Z,22.27
2023-05-05T11:41:30.597Z,21.79
2023-05-05T11:44:16.673Z,21.39
2023-05-05T11:46:52.382Z,20.79
2023-05-05T11:49:28.846Z,20.40
2023-05-05T11:51:58.962Z,20.72
2023-05-05T11:54:25.677Z,20.13
2023-05-05T11:56:56.810Z,20.20
2023-05-05T11:59:23.156Z,19.94
2023-05-05T12:01:49.663Z,19.70
2023-05-05T12:04:16.561Z,19.91
2023-05-05T12:06:44.097Z,19.78
2023-05-05T12:09:14.417Z,18.98
2023-05-05T12:11:47.747Z,18.88
2023-05-05T12:14:14.409Z,18.97
2023-05-05T12:16:40.858Z,19.15
2023-05-05T12:19:07.932Z,20.23
2023-05-05T12:21:35.611Z,20.75
2023-05-05T12:24:02.077Z,21.03
2023-05-05T12:26:29.414Z,21.53
2023-05-05T12:28:59.529Z,22.08
2023-05-05T12:31:35.808Z,22.19
2023-05-05T12:34:03.180Z,22.54
2023-05-05T12:36:33.063Z,22.50
2023-05-05T12:38:59.631Z,22.40
2023-05-05T12:41:26.089Z,22.29
2023-05-05T12:43:56.244Z,21.24
2023-05-05T12:46:22.965Z,20.58
2023-05-05T12:49:03.078Z,20.22
2023-05-05T12:51:32.631Z,19.18
2023-05-05T12:54:03.930Z,18.51
2023-05-05T12:56:34.119Z,17.93
2023-05-05T12:59:03.959Z,17.29
2023-05-05T13:01:30.541Z,16.85
2023-05-05T13:04:08.070Z,16.80
2023-05-05T13:06:40.954Z,16.40
2023-05-05T13:09:07.715Z,16.09
2023-05-05T13:11:34.539Z,15.95
2023-05-05T13:14:01.359Z,15.63
2023-05-05T13:16:30.505Z,15.65
2023-05-05T13:19:06.890Z,15.16
2023-05-05T13:21:35.852Z,14.96
2023-05-05T13:24:19.812Z,14.99
2023-05-05T13:26:51.934Z,14.91
2023-05-05T13:29:18.436Z,14.58
2023-05-05T13:31:45.020Z,14.55
2023-05-05T13:34:19.094Z,14.56
2023-05-05T13:36:45.500Z,14.48
2023-05-05T13:39:12.140Z,14.09
2023-05-05T13:41:38.659Z,13.96
2023-05-05T13:44:05.070Z,14.08
2023-05-05T13:46:31.568Z,14.10
2023-05-05T13:48:58.018Z,14.20
2023-05-05T13:51:24.372Z,13.81
2023-05-05T13:53:50.745Z,13.79
2023-05-05T13:56:17.216Z,14.02
2023-05-05T13:58:43.533Z,13.80
2023-05-05T14:01:09.997Z,13.97
2023-05-05T14:03:39.240Z,14.38
2023-05-05T14:06:06.095Z,14.58
2023-05-05T14:08:35.423Z,14.10
2023-05-05T14:11:01.830Z,14.01
2023-05-05T14:13:28.258Z,14.51
2023-05-05T14:15:54.800Z,14.33
2023-05-05T14:18:21.268Z,14.05
2023-05-05T14:20:47.646Z,14.21
2023-05-05T14:23:14.030Z,14.08
2023-05-05T14:25:40.528Z,13.93
2023-05-05T14:28:09.163Z,13.70
2023-05-05T14:30:35.554Z,13.20
2023-05-05T14:33:02.063Z,13.98
2023-05-05T14:35:29.131Z,13.97
2023-05-05T14:37:57.783Z,14.27
2023-05-05T14:40:24.294Z,14.32
2023-05-05T14:42:50.787Z,14.29
2023-05-05T14:45:17.160Z,14.39
2023-05-05T14:47:43.820Z,15.25
2023-05-05T14:50:10.232Z,15.91
2023-05-05T14:52:37.019Z,16.76
2023-05-05T14:55:04.401Z,16.83
2023-05-05T14:57:31.108Z,16.60
2023-05-05T14:59:57.520Z,16.41
2023-05-05T15:02:23.914Z,16.48
2023-05-05T15:04:53.846Z,15.94
2023-05-05T15:07:34.489Z,15.24
2023-05-05T15:10:00.871Z,15.58
2023-05-05T15:12:27.343Z,15.46
2023-05-05T15:15:04.413Z,15.43
2023-05-05T15:17:38.191Z,15.21
2023-05-05T15:20:15.135Z,15.52
2023-05-05T15:22:41.570Z,15.64
2023-05-05T15:25:08.618Z,15.66
2023-05-05T15:27:35.327Z,15.57
2023-05-05T15:30:01.801Z,15.27
2023-05-05T15:32:28.423Z,15.45
2023-05-05T15:34:55.077Z,15.65
2023-05-05T15:37:21.423Z,15.60
2023-05-05T15:39:47.940Z,15.84
2023-05-05T15:42:14.324Z,15.86
2023-05-05T15:44:40.707Z,15.88
2023-05-05T15:47:07.441Z,15.88
2023-05-05T15:49:41.390Z,15.75
2023-05-05T15:52:07.785Z,16.13
2023-05-05T15:54:34.183Z,15.53
2023-05-05T15:57:03.563Z,15.86
2023-05-05T15:59:37.384Z,15.81
2023-05-05T16:02:03.901Z,15.65
2023-05-05T16:04:38.916Z,16.22
2023-05-05T16:07:05.545Z,16.93
2023-05-05T16:09:31.888Z,18.04
2023-05-05T16:12:01.715Z,19.02
2023-05-05T16:14:28.448Z,19.99
2023-05-05T16:16:54.840Z,21.26
2023-05-05T16:19:23.748Z,21.96
2023-05-05T16:21:50.107Z,22.84
2023-05-05T16:24:17.053Z,23.55
2023-05-05T16:26:43.745Z,24.51
2023-05-05T16:29:10.772Z,25.10
2023-05-05T16:31:37.512Z,25.55
2023-05-05T16:34:07.079Z,25.56
2023-05-05T16:36:33.776Z,25.28
2023-05-05T16:39:00.391Z,24.84
2023-05-05T16:41:27.020Z,24.80
2023-05-05T16:43:53.436Z,24.22
2023-05-05T16:46:19.975Z,23.94
2023-05-05T16:48:46.459Z,23.65
2023-05-05T16:51:12.937Z,23.43
2023-05-05T16:53:39.399Z,23.81
2023-05-05T16:56:06.055Z,24.40
2023-05-05T16:58:32.528Z,25.03
2023-05-05T17:00:58.909Z,25.75
2023-05-05T17:03:25.329Z,26.47
2023-05-05T17:05:54.098Z,27.08
2023-05-05T17:08:20.705Z,27.76
2023-05-05T17:10:47.280Z,28.53
2023-05-05T17:13:16.105Z,28.88
2023-05-05T17:15:42.497Z,29.42
2023-05-05T17:18:09.283Z,30.06
2023-05-05T17:20:35.762Z,30.58
2023-05-05T17:23:04.741Z,31.10
2023-05-05T17:25:31.193Z,31.59
2023-05-05T17:27:57.720Z,31.97
2023-05-05T17:30:24.278Z,32.50
2023-05-05T17:32:50.917Z,32.77
2023-05-05T17:35:17.578Z,33.13
2023-05-05T17:37:44.045Z,33.65
2023-05-05T17:40:10.765Z,33.96
2023-05-05T17:42:37.062Z,34.35
2023-05-05T17:45:03.856Z,34.72
2023-05-05T17:47:30.579Z,34.86
2023-05-05T17:49:56.969Z,35.13
2023-05-05T17:52:23.790Z,35.37
2023-05-05T17:54:50.870Z,35.81
2023-05-05T17:57:18.053Z,36.11
2023-05-05T17:59:44.883Z,36.25
2023-05-05T18:02:14.435Z,36.34
2023-05-05T18:04:40.894Z,36.57
2023-05-05T18:07:07.468Z,37.07
2023-05-05T18:09:34.853Z,37.54
2023-05-05T18:12:01.462Z,37.88
2023-05-05T18:14:30.888Z,37.73
2023-05-05T18:16:57.394Z,37.91
2023-05-05T18:19:23.957Z,38.12
2023-05-05T18:21:51.262Z,38.53
2023-05-05T18:24:19.962Z,38.98
2023-05-05T18:26:48.332Z,38.96
2023-05-05T18:29:14.988Z,39.20
2023-05-05T18:31:42.206Z,39.94
2023-05-05T18:34:08.862Z,40.04
2023-05-05T18:36:35.469Z,40.53
2023-05-05T18:39:01.986Z,40.71
2023-05-05T18:41:28.564Z,40.81
2023-05-05T18:43:55.087Z,40.89
2023-05-05T18:46:21.776Z,41.09
2023-05-05T18:48:48.127Z,41.21
2023-05-05T18:51:14.619Z,41.51
2023-05-05T18:53:41.120Z,41.53
2023-05-05T18:56:07.653Z,42.14
2023-05-05T18:58:34.044Z,42.37
2023-05-05T19:01:00.909Z,42.11
2023-05-05T19:03:27.488Z,42.14
2023-05-05T19:05:55.440Z,42.28
2023-05-05T19:08:22.389Z,42.47
2023-05-05T19:10:50.213Z,42.38
2023-05-05T19:13:16.729Z,42.26
2023-05-05T19:15:43.711Z,42.30
2023-05-05T19:18:10.125Z,42.58
2023-05-05T19:20:38.980Z,43.20
2023-05-05T19:23:05.706Z,43.48
2023-05-05T19:25:33.516Z,44.13
2023-05-05T19:28:00.041Z,43.91
2023-05-05T19:30:26.751Z,44.13
2023-05-05T19:32:53.315Z,44.19
2023-05-05T19:35:19.964Z,44.23
2023-05-05T19:37:46.864Z,44.50
2023-05-05T19:40:13.632Z,44.63
2023-05-05T19:42:40.575Z,44.79
2023-05-05T19:45:08.413Z,44.94
2023-05-05T19:47:34.850Z,45.33
2023-05-05T19:50:01.422Z,45.72
2023-05-05T19:52:27.920Z,45.56
2023-05-05T19:54:54.337Z,45.65
2023-05-05T19:57:22.182Z,45.92
2023-05-05T19:59:48.805Z,46.29
2023-05-05T20:02:15.575Z,46.55
2023-05-05T20:04:42.471Z,46.67
2023-05-05T20:07:08.934Z,46.56
2023-05-05T20:09:35.305Z,46.62
2023-05-05T20:12:01.969Z,46.70
2023-05-05T20:14:30.451Z,47.16
2023-05-05T20:16:56.789Z,47.35
2023-05-05T20:19:23.517Z,47.48
2023-05-05T20:21:49.965Z,47.82
2023-05-05T20:24:16.574Z,47.85
2023-05-05T20:26:43.039Z,47.66
2023-05-05T20:29:09.616Z,47.75
2023-05-05T20:31:39.201Z,47.93
2023-05-05T20:34:05.827Z,48.14
2023-05-05T20:36:32.435Z,48.31
2023-05-05T20:38:58.830Z,48.45
2023-05-05T20:41:25.244Z,48.33
2023-05-05T20:43:52.107Z,48.54
2023-05-05T20:46:18.588Z,48.64
2023-05-05T20:48:45.104Z,48.96
2023-05-05T20:51:14.157Z,48.96
2023-05-05T20:53:40.630Z,48.73
2023-05-05T20:56:08.630Z,48.62
2023-05-05T20:58:35.526Z,48.93
2023-05-05T21:01:01.997Z,49.57
2023-05-05T21:03:31.092Z,49.48
2023-05-05T21:05:57.710Z,49.62
2023-05-05T21:08:24.196Z,49.78
2023-05-05T21:10:51.602Z,50.01
2023-05-05T21:13:18.132Z,50.14
2023-05-05T21:15:44.700Z,50.27
2023-05-05T21:18:11.642Z,50.70
2023-05-05T21:20:38.072Z,50.61
2023-05-05T21:23:04.399Z,50.68
2023-05-05T21:25:30.749Z,50.64
2023-05-05T21:27:57.179Z,50.72
2023-05-05T21:30:23.553Z,50.53
2023-05-05T21:32:50.220Z,50.93
2023-05-05T21:35:16.632Z,50.79
2023-05-05T21:37:45.566Z,50.85
2023-05-05T21:40:12.375Z,50.74
2023-05-05T21:42:39.500Z,50.83
2023-05-05T21:45:06.149Z,50.57
2023-05-05T21:47:33.311Z,50.84
2023-05-05T21:50:00.106Z,50.97
2023-05-05T21:52:26.554Z,51.15
2023-05-05T21:54:53.044Z,51.34
2023-05-05T21:57:19.435Z,51.36
2023-05-05T21:59:45.920Z,51.52
2023-05-05T22:02:12.198Z,51.93
2023-05-05T22:04:38.539Z,51.99
2023-05-05T22:07:04.967Z,52.37
2023-05-05T22:09:31.347Z,52.74
2023-05-05T22:11:57.676Z,53.05
2023-05-05T22:14:23.996Z,53.14
2023-05-05T22:16:50.760Z,53.64
2023-05-05T22:19:19.507Z,53.74
2023-05-05T22:21:45.985Z,53.97
2023-05-05T22:24:12.530Z,54.40
2023-05-05T22:26:38.814Z,54.83
2023-05-05T22:29:05.107Z,55.04
2023-05-05T22:31:31.510Z,55.18
2023-05-05T22:33:57.810Z,55.66
2023-05-05T22:36:24.243Z,55.96
2023-05-05T22:38:50.606Z,56.22
2023-05-05T22:41:16.876Z,56.39
2023-05-05T22:43:43.172Z,56.67
2023-05-05T22:46:09.602Z,57.03
2023-05-05T22:48:35.862Z,57.18
2023-05-05T22:51:02.164Z,57.22
2023-05-05T22:53:28.484Z,57.47
2023-05-05T22:55:54.812Z,57.39
2023-05-05T22:58:21.357Z,57.60
2023-05-05T23:00:47.726Z,57.91
2023-05-05T23:03:14.239Z,57.99
2023-05-05T23:05:40.584Z,57.84
2023-05-05T23:08:06.905Z,58.27
2023-05-05T23:10:33.292Z,58.16
2023-05-05T23:12:59.698Z,58.49
2023-05-05T23:15:26.153Z,58.58
2023-05-05T23:17:52.436Z,59.00
2023-05-05T23:20:18.806Z,58.88
2023-05-05T23:22:45.362Z,59.09
2023-05-05T23:25:12.073Z,59.54
2023-05-05T23:27:38.944Z,59.49
2023-05-05T23:30:06.217Z,59.50
2023-05-05T23:32:32.776Z,59.73
2023-05-05T23:34:59.128Z,59.90
2023-05-05T23:37:25.485Z,59.86
2023-05-05T23:39:51.912Z,60.32
2023-05-05T23:42:18.258Z,60.42
2023-05-05T23:44:44.624Z,60.44
2023-05-05T23:47:11.066Z,60.45
2023-05-05T23:49:37.706Z,60.32
2023-05-05T23:52:04.183Z,60.45
2023-05-05T23:54:30.517Z,60.59
2023-05-05T23:56:56.902Z,60.70
2023-05-05T23:59:23.597Z,60.79
